Main page
METAR-TAF:

METAR-TAF

Airports :

Lincolnton–Lincoln County Regional Airport

Lincolnton, North Carolina, United States

latitude: 35-28-59N, longitude: 081-09-41W, elevation: 876 ft

Current weather observation

The report was made 19 minutes ago, at 18:45 UTC
Wind 15 mph from the South/Southwest with gusts up to 21 mph
Temperature 68°F
Humidity 73%
Pressure 29.81 in. Hg
Visibility: 10 miles
Broken clouds at a height of 2600 ft
Overcast at a height of 3400 ft

METAR: KIPJ 281845Z AUTO 20013G18KT 10SM BKN026 OVC034 20/15 A2981 RMK AO2 T02000150

Time: 14:04 (19:04 UTC)


TAF: missing

Weather observations and forecasts of more than 4000 airports (METAR and TAF reports).

The available stations are represented by yellow and red dots on the map.

Hover mouse over dot to see the name of the station.

Then click to see weather observations and forecasts.

To change the map : click on the green buttons with a black cross to zoom in, on the green button with a dash to zoom out, or on the green arrows for adjacent maps.


METAR-TAF: